sensor_id;sensor_type;location;lat;lon;timestamp;pressure;altitude;pressure_sealevel;temperature;humidity
59650;BME280;46162;57.568;25.814;2023-02-12T00:01:33;101793.91;;;-7.53;100.00
59650;BME280;46162;57.568;25.814;2023-02-12T00:04:02;101804.41;;;-7.58;100.00
59650;BME280;46162;57.568;25.814;2023-02-12T00:06:31;101811.44;;;-7.61;100.00
59650;BME280;46162;57.568;25.814;2023-02-12T00:08:59;101819.38;;;-7.69;100.00
59650;BME280;46162;57.568;25.814;2023-02-12T00:11:28;101817.34;;;-7.28;100.00
59650;BME280;46162;57.568;25.814;2023-02-12T00:13:58;101818.31;;;-7.39;100.00
59650;BME280;46162;57.568;25.814;2023-02-12T00:16:29;101820.28;;;-7.76;100.00
59650;BME280;46162;57.568;25.814;2023-02-12T00:18:58;101819.44;;;-7.81;100.00
59650;BME280;46162;57.568;25.814;2023-02-12T00:21:27;101824.59;;;-7.69;100.00
59650;BME280;46162;57.568;25.814;2023-02-12T00:23:55;101838.53;;;-7.56;100.00
59650;BME280;46162;57.568;25.814;2023-02-12T00:26:24;101850.75;;;-7.53;100.00
59650;BME280;46162;57.568;25.814;2023-02-12T00:28:53;101852.28;;;-7.20;100.00
59650;BME280;46162;57.568;25.814;2023-02-12T00:31:24;101857.44;;;-7.06;100.00
59650;BME280;46162;57.568;25.814;2023-02-12T00:33:55;101857.44;;;-7.06;100.00
59650;BME280;46162;57.568;25.814;2023-02-12T00:36:26;101861.13;;;-7.40;100.00
59650;BME280;46162;57.568;25.814;2023-02-12T00:38:56;101867.28;;;-7.47;100.00
59650;BME280;46162;57.568;25.814;2023-02-12T00:41:25;101868.28;;;-7.68;100.00
59650;BME280;46162;57.568;25.814;2023-02-12T00:43:53;101871.03;;;-8.00;100.00
59650;BME280;46162;57.568;25.814;2023-02-12T00:46:23;101867.53;;;-7.93;100.00
59650;BME280;46162;57.568;25.814;2023-02-12T00:48:52;101872.69;;;-7.74;100.00
59650;BME280;46162;57.568;25.814;2023-02-12T00:51:20;101879.69;;;-7.80;100.00
59650;BME280;46162;57.568;25.814;2023-02-12T00:53:49;101890.28;;;-8.04;100.00
59650;BME280;46162;57.568;25.814;2023-02-12T00:56:17;101886.78;;;-8.06;100.00
59650;BME280;46162;57.568;25.814;2023-02-12T00:58:48;101889.38;;;-8.02;100.00
59650;BME280;46162;57.568;25.814;2023-02-12T01:01:17;101889.34;;;-7.83;100.00
59650;BME280;46162;57.568;25.814;2023-02-12T01:03:47;101898.19;;;-8.27;100.00
59650;BME280;46162;57.568;25.814;2023-02-12T01:06:18;101901.69;;;-8.37;100.00
59650;BME280;46162;57.568;25.814;2023-02-12T01:08:49;101911.25;;;-8.09;100.00
59650;BME280;46162;57.568;25.814;2023-02-12T01:11:18;101907.75;;;-8.08;100.00
59650;BME280;46162;57.568;25.814;2023-02-12T01:13:47;101915.66;;;-8.32;100.00
59650;BME280;46162;57.568;25.814;2023-02-12T01:16:18;101926.19;;;-8.58;100.00
59650;BME280;46162;57.568;25.814;2023-02-12T01:18:50;101926.19;;;-8.63;100.00
59650;BME280;46162;57.568;25.814;2023-02-12T01:21:24;101921.81;;;-8.93;100.00
59650;BME280;46162;57.568;25.814;2023-02-12T01:23:53;101919.19;;;-8.99;100.00
59650;BME280;46162;57.568;25.814;2023-02-12T01:26:23;101936.59;;;-9.15;100.00
59650;BME280;46162;57.568;25.814;2023-02-12T01:28:57;101941.91;;;-8.88;100.00
59650;BME280;46162;57.568;25.814;2023-02-12T01:31:30;101952.34;;;-8.94;100.00
59650;BME280;46162;57.568;25.814;2023-02-12T01:34:00;101941.88;;;-9.00;100.00
59650;BME280;46162;57.568;25.814;2023-02-12T01:36:29;101952.34;;;-8.78;100.00
59650;BME280;46162;57.568;25.814;2023-02-12T01:38:58;101961.97;;;-8.50;100.00
59650;BME280;46162;57.568;25.814;2023-02-12T01:41:31;101958.44;;;-8.19;100.00
59650;BME280;46162;57.568;25.814;2023-02-12T01:44:09;101965.44;;;-8.15;100.00
59650;BME280;46162;57.568;25.814;2023-02-12T01:46:39;101965.44;;;-8.25;100.00
59650;BME280;46162;57.568;25.814;2023-02-12T01:49:13;101975.91;;;-8.31;100.00
59650;BME280;46162;57.568;25.814;2023-02-12T01:51:43;101976.78;;;-8.15;100.00
59650;BME280;46162;57.568;25.814;2023-02-12T01:54:14;101966.25;;;-8.00;100.00
59650;BME280;46162;57.568;25.814;2023-02-12T01:56:44;101956.63;;;-7.90;100.00
59650;BME280;46162;57.568;25.814;2023-02-12T01:59:13;101968.00;;;-7.92;100.00
59650;BME280;46162;57.568;25.814;2023-02-12T02:01:41;101963.63;;;-7.90;100.00
59650;BME280;46162;57.568;25.814;2023-02-12T02:04:14;101955.81;;;-8.06;100.00
59650;BME280;46162;57.568;25.814;2023-02-12T02:06:48;101963.72;;;-8.49;100.00
59650;BME280;46162;57.568;25.814;2023-02-12T02:09:18;101964.63;;;-8.40;100.00
59650;BME280;46162;57.568;25.814;2023-02-12T02:11:47;101966.34;;;-8.49;100.00
59650;BME280;46162;57.568;25.814;2023-02-12T02:14:33;101958.47;;;-8.61;100.00
59650;BME280;46162;57.568;25.814;2023-02-12T02:17:43;101965.47;;;-8.55;100.00
59650;BME280;46162;57.568;25.814;2023-02-12T02:20:45;101979.41;;;-8.82;100.00
59650;BME280;46162;57.568;25.814;2023-02-12T02:23:33;101981.97;;;-9.07;100.00
59650;BME280;46162;57.568;25.814;2023-02-12T02:32:17;101991.41;;;-9.47;100.00
59650;BME280;46162;57.568;25.814;2023-02-12T02:34:53;102001.19;;;-8.93;100.00
59650;BME280;46162;57.568;25.814;2023-02-12T02:37:27;101994.25;;;-8.88;100.00
59650;BME280;46162;57.568;25.814;2023-02-12T02:40:04;102001.25;;;-8.77;100.00
59650;BME280;46162;57.568;25.814;2023-02-12T02:42:41;102000.34;;;-8.84;100.00
59650;BME280;46162;57.568;25.814;2023-02-12T02:45:15;102002.03;;;-9.06;100.00
59650;BME280;46162;57.568;25.814;2023-02-12T02:47:48;102009.84;;;-9.14;100.00
59650;BME280;46162;57.568;25.814;2023-02-12T02:50:21;102012.28;;;-9.52;100.00
59650;BME280;46162;57.568;25.814;2023-02-12T02:52:53;102017.47;;;-9.66;100.00
59650;BME280;46162;57.568;25.814;2023-02-12T02:55:27;102025.34;;;-9.61;100.00
59650;BME280;46162;57.568;25.814;2023-02-12T02:58:00;102028.88;;;-9.52;100.00
59650;BME280;46162;57.568;25.814;2023-02-12T03:00:34;102043.59;;;-9.69;100.00
59650;BME280;46162;57.568;25.814;2023-02-12T03:03:08;102042.69;;;-9.73;100.00
59650;BME280;46162;57.568;25.814;2023-02-12T03:05:41;102037.72;;;-9.22;100.00
59650;BME280;46162;57.568;25.814;2023-02-12T03:08:13;102050.09;;;-8.82;100.00
59650;BME280;46162;57.568;25.814;2023-02-12T03:10:46;102050.13;;;-8.61;100.00
59650;BME280;46162;57.568;25.814;2023-02-12T03:13:21;102051.91;;;-8.48;100.00
59650;BME280;46162;57.568;25.814;2023-02-12T03:15:56;102048.38;;;-8.39;100.00
59650;BME280;46162;57.568;25.814;2023-02-12T03:18:32;102056.25;;;-8.28;100.00
59650;BME280;46162;57.568;25.814;2023-02-12T03:21:04;102056.25;;;-8.22;100.00
59650;BME280;46162;57.568;25.814;2023-02-12T03:23:37;102053.66;;;-8.28;100.00
59650;BME280;46162;57.568;25.814;2023-02-12T03:26:09;102049.28;;;-8.20;100.00
59650;BME280;46162;57.568;25.814;2023-02-12T03:28:39;102048.41;;;-8.22;100.00
59650;BME280;46162;57.568;25.814;2023-02-12T03:31:13;102051.03;;;-8.44;100.00
59650;BME280;46162;57.568;25.814;2023-02-12T03:33:54;102057.09;;;-8.38;100.00
59650;BME280;46162;57.568;25.814;2023-02-12T03:36:33;102056.28;;;-8.45;100.00
59650;BME280;46162;57.568;25.814;2023-02-12T03:39:08;102063.22;;;-8.36;100.00
59650;BME280;46162;57.568;25.814;2023-02-12T03:41:42;102061.47;;;-8.31;100.00
59650;BME280;46162;57.568;25.814;2023-02-12T03:44:18;102058.03;;;-8.39;100.00
59650;BME280;46162;57.568;25.814;2023-02-12T03:46:57;102051.81;;;-8.88;100.00
59650;BME280;46162;57.568;25.814;2023-02-12T03:49:32;102052.47;;;-9.38;100.00
59650;BME280;46162;57.568;25.814;2023-02-12T03:52:03;102074.13;;;-9.63;100.00
59650;BME280;46162;57.568;25.814;2023-02-12T03:54:32;102079.22;;;-9.77;100.00
59650;BME280;46162;57.568;25.814;2023-02-12T03:57:03;102082.84;;;-9.61;100.00
59650;BME280;46162;57.568;25.814;2023-02-12T03:59:34;102080.41;;;-9.31;100.00
59650;BME280;46162;57.568;25.814;2023-02-12T04:02:04;102090.16;;;-8.99;100.00
59650;BME280;46162;57.568;25.814;2023-02-12T04:04:40;102092.78;;;-8.93;100.00
59650;BME280;46162;57.568;25.814;2023-02-12T04:07:12;102091.78;;;-9.22;100.00
59650;BME280;46162;57.568;25.814;2023-02-12T04:09:41;102094.25;;;-9.45;100.00
59650;BME280;46162;57.568;25.814;2023-02-12T04:12:30;102096.13;;;-9.20;100.00
59650;BME280;46162;57.568;25.814;2023-02-12T04:17:59;102092.75;;;-9.00;100.00
59650;BME280;46162;57.568;25.814;2023-02-12T04:20:41;102095.34;;;-9.08;100.00
59650;BME280;46162;57.568;25.814;2023-02-12T04:23:24;102106.38;;;-9.58;100.00
59650;BME280;46162;57.568;25.814;2023-02-12T04:26:04;102096.88;;;-9.45;100.00
59650;BME280;46162;57.568;25.814;2023-02-12T04:28:42;102096.00;;;-9.49;100.00
59650;BME280;46162;57.568;25.814;2023-02-12T04:31:20;102103.78;;;-9.58;100.00
59650;BME280;46162;57.568;25.814;2023-02-12T04:33:57;102112.31;;;-9.79;100.00
59650;BME280;46162;57.568;25.814;2023-02-12T04:36:37;102103.84;;;-9.49;100.00
59650;BME280;46162;57.568;25.814;2023-02-12T04:39:14;102105.44;;;-9.71;100.00
59650;BME280;46162;57.568;25.814;2023-02-12T04:41:44;102097.66;;;-9.60;100.00
59650;BME280;46162;57.568;25.814;2023-02-12T04:44:18;102101.28;;;-9.38;100.00
59650;BME280;46162;57.568;25.814;2023-02-12T04:46:50;102095.19;;;-9.36;100.00
59650;BME280;46162;57.568;25.814;2023-02-12T04:49:20;102104.63;;;-9.61;100.00
59650;BME280;46162;57.568;25.814;2023-02-12T04:51:51;102115.78;;;-9.83;100.00
59650;BME280;46162;57.568;25.814;2023-02-12T04:54:23;102104.50;;;-9.81;100.00
59650;BME280;46162;57.568;25.814;2023-02-12T04:56:52;102108.00;;;-9.79;100.00
59650;BME280;46162;57.568;25.814;2023-02-12T04:59:22;102117.81;;;-9.44;100.00
59650;BME280;46162;57.568;25.814;2023-02-12T05:01:51;102117.84;;;-9.38;100.00
59650;BME280;46162;57.568;25.814;2023-02-12T05:04:20;102118.78;;;-9.28;100.00
59650;BME280;46162;57.568;25.814;2023-02-12T05:06:48;102123.16;;;-9.24;100.00
59650;BME280;46162;57.568;25.814;2023-02-12T05:09:19;102133.44;;;-9.56;100.00
59650;BME280;46162;57.568;25.814;2023-02-12T05:11:48;102131.63;;;-9.66;100.00
59650;BME280;46162;57.568;25.814;2023-02-12T05:14:17;102139.53;;;-9.53;100.00
59650;BME280;46162;57.568;25.814;2023-02-12T05:16:45;102143.03;;;-9.54;100.00
59650;BME280;46162;57.568;25.814;2023-02-12T05:19:14;102141.44;;;-9.32;100.00
59650;BME280;46162;57.568;25.814;2023-02-12T05:21:43;102140.53;;;-9.37;100.00
59650;BME280;46162;57.568;25.814;2023-02-12T05:24:12;102134.22;;;-9.62;100.00
59650;BME280;46162;57.568;25.814;2023-02-12T05:26:42;102138.66;;;-9.56;100.00
59650;BME280;46162;57.568;25.814;2023-02-12T05:29:11;102142.19;;;-9.48;100.00
59650;BME280;46162;57.568;25.814;2023-02-12T05:31:40;102134.44;;;-9.34;100.00
59650;BME280;46162;57.568;25.814;2023-02-12T05:34:10;102139.78;;;-9.17;100.00
59650;BME280;46162;57.568;25.814;2023-02-12T05:36:42;102139.84;;;-9.06;100.00
59650;BME280;46162;57.568;25.814;2023-02-12T05:39:11;102141.66;;;-8.95;100.00
59650;BME280;46162;57.568;25.814;2023-02-12T05:41:42;102142.59;;;-8.74;100.00
59650;BME280;46162;57.568;25.814;2023-02-12T05:44:11;102147.00;;;-8.70;100.00
59650;BME280;46162;57.568;25.814;2023-02-12T05:46:41;102161.56;;;-9.18;100.00
59650;BME280;46162;57.568;25.814;2023-02-12T05:49:10;102166.63;;;-9.40;100.00
59650;BME280;46162;57.568;25.814;2023-02-12T05:51:39;102173.81;;;-9.11;100.00
59650;BME280;46162;57.568;25.814;2023-02-12T05:54:08;102166.88;;;-9.06;100.00
59650;BME280;46162;57.568;25.814;2023-02-12T05:56:43;102168.66;;;-8.93;100.00
59650;BME280;46162;57.568;25.814;2023-02-12T05:59:14;102165.19;;;-8.96;100.00
59650;BME280;46162;57.568;25.814;2023-02-12T06:01:44;102172.16;;;-8.95;100.00
59650;BME280;46162;57.568;25.814;2023-02-12T06:04:15;102172.09;;;-9.09;100.00
59650;BME280;46162;57.568;25.814;2023-02-12T06:06:44;102164.06;;;-9.38;100.00
59650;BME280;46162;57.568;25.814;2023-02-12T06:09:13;102157.00;;;-9.48;100.00
59650;BME280;46162;57.568;25.814;2023-02-12T06:11:43;102166.88;;;-9.06;100.00
59650;BME280;46162;57.568;25.814;2023-02-12T06:14:13;102165.19;;;-8.95;100.00
59650;BME280;46162;57.568;25.814;2023-02-12T06:16:43;102160.78;;;-9.03;100.00
59650;BME280;46162;57.568;25.814;2023-02-12T06:19:13;102165.09;;;-9.09;100.00
59650;BME280;46162;57.568;25.814;2023-02-12T06:21:41;102169.44;;;-9.14;100.00
59650;BME280;46162;57.568;25.814;2023-02-12T06:24:11;102165.81;;;-9.33;100.00
59650;BME280;46162;57.568;25.814;2023-02-12T06:26:43;102161.38;;;-9.49;100.00
59650;BME280;46162;57.568;25.814;2023-02-12T06:29:12;102167.66;;;-9.21;100.00
59650;BME280;46162;57.568;25.814;2023-02-12T06:31:41;102173.81;;;-9.11;100.00
59650;BME280;46162;57.568;25.814;2023-02-12T06:34:11;102173.81;;;-9.08;100.00
59650;BME280;46162;57.568;25.814;2023-02-12T06:36:41;102169.47;;;-9.06;100.00
59650;BME280;46162;57.568;25.814;2023-02-12T06:39:12;102184.31;;;-9.05;100.00
59650;BME280;46162;57.568;25.814;2023-02-12T06:41:43;102182.38;;;-9.37;100.00
59650;BME280;46162;57.568;25.814;2023-02-12T06:44:12;102172.78;;;-9.36;100.00
59650;BME280;46162;57.568;25.814;2023-02-12T06:46:42;102177.38;;;-8.98;100.00
59650;BME280;46162;57.568;25.814;2023-02-12T06:49:14;102174.06;;;-8.65;100.00
59650;BME280;46162;57.568;25.814;2023-02-12T06:51:45;102167.16;;;-8.45;100.00
59650;BME280;46162;57.568;25.814;2023-02-12T06:54:16;102167.16;;;-8.32;100.00
59650;BME280;46162;57.568;25.814;2023-02-12T06:56:47;102157.56;;;-8.27;100.00
59650;BME280;46162;57.568;25.814;2023-02-12T06:59:17;102143.56;;;-8.29;100.00
59650;BME280;46162;57.568;25.814;2023-02-12T07:01:46;102151.47;;;-8.23;100.00
59650;BME280;46162;57.568;25.814;2023-02-12T07:04:14;102146.19;;;-8.26;100.00
59650;BME280;46162;57.568;25.814;2023-02-12T07:06:44;102156.72;;;-8.05;100.00
59650;BME280;46162;57.568;25.814;2023-02-12T07:09:16;102151.47;;;-7.94;100.00
59650;BME280;46162;57.568;25.814;2023-02-12T07:11:46;102145.38;;;-7.88;100.00
59650;BME280;46162;57.568;25.814;2023-02-12T07:14:15;102142.75;;;-7.85;100.00
59650;BME280;46162;57.568;25.814;2023-02-12T07:16:44;102143.63;;;-7.62;100.00
59650;BME280;46162;57.568;25.814;2023-02-12T07:19:13;102141.00;;;-7.40;100.00
59650;BME280;46162;57.568;25.814;2023-02-12T07:21:43;102139.22;;;-7.23;100.00
59650;BME280;46162;57.568;25.814;2023-02-12T07:24:12;102143.53;;;-7.05;100.00
59650;BME280;46162;57.568;25.814;2023-02-12T07:26:41;102145.25;;;-6.87;100.00
59650;BME280;46162;57.568;25.814;2023-02-12T07:29:11;102146.03;;;-6.73;100.00
59650;BME280;46162;57.568;25.814;2023-02-12T07:31:40;102156.53;;;-6.66;100.00
59650;BME280;46162;57.568;25.814;2023-02-12T07:34:09;102162.63;;;-6.54;100.00
59650;BME280;46162;57.568;25.814;2023-02-12T07:36:38;102172.19;;;-6.39;100.00
59650;BME280;46162;57.568;25.814;2023-02-12T07:39:06;102170.41;;;-6.37;100.00
59650;BME280;46162;57.568;25.814;2023-02-12T07:41:35;102169.47;;;-6.28;100.00
59650;BME280;46162;57.568;25.814;2023-02-12T07:44:05;102180.81;;;-6.18;100.00
59650;BME280;46162;57.568;25.814;2023-02-12T07:46:40;102188.69;;;-6.14;100.00
59650;BME280;46162;57.568;25.814;2023-02-12T07:49:12;102193.06;;;-6.14;100.00
59650;BME280;46162;57.568;25.814;2023-02-12T07:51:41;102182.53;;;-6.08;100.00
59650;BME280;46162;57.568;25.814;2023-02-12T07:54:10;102177.19;;;-5.99;100.00
59650;BME280;46162;57.568;25.814;2023-02-12T07:56:41;102170.94;;;-5.84;100.00
59650;BME280;46162;57.568;25.814;2023-02-12T07:59:14;102174.34;;;-5.71;100.00
59650;BME280;46162;57.568;25.814;2023-02-12T08:01:46;102161.19;;;-5.71;100.00
59650;BME280;46162;57.568;25.814;2023-02-12T08:04:18;102169.94;;;-5.68;100.00
59650;BME280;46162;57.568;25.814;2023-02-12T08:06:49;102167.31;;;-5.69;100.00
59650;BME280;46162;57.568;25.814;2023-02-12T08:09:21;102161.19;;;-5.68;100.00
59650;BME280;46162;57.568;25.814;2023-02-12T08:11:50;102174.31;;;-5.65;100.00
59650;BME280;46162;57.568;25.814;2023-02-12T08:14:20;102178.63;;;-5.59;100.00
59650;BME280;46162;57.568;25.814;2023-02-12T08:16:50;102186.47;;;-5.52;100.00
59650;BME280;46162;57.568;25.814;2023-02-12T08:19:19;102186.28;;;-5.32;100.00
59650;BME280;46162;57.568;25.814;2023-02-12T08:21:53;102191.47;;;-5.23;100.00
59650;BME280;46162;57.568;25.814;2023-02-12T08:24:22;102187.88;;;-5.12;100.00
59650;BME280;46162;57.568;25.814;2023-02-12T08:26:51;102195.75;;;-5.09;100.00
59650;BME280;46162;57.568;25.814;2023-02-12T08:29:21;102193.91;;;-5.03;100.00
59650;BME280;46162;57.568;25.814;2023-02-12T08:31:55;102198.25;;;-4.97;100.00
59650;BME280;46162;57.568;25.814;2023-02-12T08:34:26;102189.38;;;-4.90;100.00
59650;BME280;46162;57.568;25.814;2023-02-12T08:36:55;102192.84;;;-4.85;100.00
59650;BME280;46162;57.568;25.814;2023-02-12T08:39:26;102191.03;;;-4.78;100.00
59650;BME280;46162;57.568;25.814;2023-02-12T08:41:56;102184.81;;;-4.71;100.00
59650;BME280;46162;57.568;25.814;2023-02-12T08:44:25;102179.44;;;-4.63;100.00
59650;BME280;46162;57.568;25.814;2023-02-12T08:46:55;102186.38;;;-4.58;100.00
59650;BME280;46162;57.568;25.814;2023-02-12T08:49:25;102189.00;;;-4.55;100.00
59650;BME280;46162;57.568;25.814;2023-02-12T08:51:55;102183.59;;;-4.44;100.00
59650;BME280;46162;57.568;25.814;2023-02-12T08:54:26;102187.03;;;-4.37;100.00
59650;BME280;46162;57.568;25.814;2023-02-12T08:56:55;102192.25;;;-4.34;100.00
59650;BME280;46162;57.568;25.814;2023-02-12T08:59:24;102189.56;;;-4.31;100.00
59650;BME280;46162;57.568;25.814;2023-02-12T09:01:53;102168.44;;;-4.28;100.00
59650;BME280;46162;57.568;25.814;2023-02-12T09:04:25;102170.16;;;-4.24;100.00
59650;BME280;46162;57.568;25.814;2023-02-12T09:06:54;102166.53;;;-4.17;100.00
59650;BME280;46162;57.568;25.814;2023-02-12T09:09:23;102165.50;;;-4.08;100.00
59650;BME280;46162;57.568;25.814;2023-02-12T09:11:51;102166.28;;;-4.00;100.00
59650;BME280;46162;57.568;25.814;2023-02-12T09:14:20;102176.72;;;-3.91;100.00
59650;BME280;46162;57.568;25.814;2023-02-12T09:16:51;102175.75;;;-3.85;100.00
59650;BME280;46162;57.568;25.814;2023-02-12T09:19:20;102179.19;;;-3.81;100.00
59650;BME280;46162;57.568;25.814;2023-02-12T09:21:54;102163.34;;;-3.78;100.00
59650;BME280;46162;57.568;25.814;2023-02-12T09:24:23;102172.06;;;-3.76;100.00
59650;BME280;46162;57.568;25.814;2023-02-12T09:26:54;102165.84;;;-3.71;100.00
59650;BME280;46162;57.568;25.814;2023-02-12T09:29:22;102156.03;;;-3.64;100.00
59650;BME280;46162;57.568;25.814;2023-02-12T09:31:51;102152.41;;;-3.57;100.00
59650;BME280;46162;57.568;25.814;2023-02-12T09:34:20;102163.81;;;-3.53;100.00
59650;BME280;46162;57.568;25.814;2023-02-12T09:36:49;102156.69;;;-3.48;100.00
59650;BME280;46162;57.568;25.814;2023-02-12T09:39:18;102153.03;;;-3.41;100.00
59650;BME280;46162;57.568;25.814;2023-02-12T09:42:07;102154.56;;;-3.29;100.00
59650;BME280;46162;57.568;25.814;2023-02-12T09:44:47;102146.56;;;-3.23;100.00
59650;BME280;46162;57.568;25.814;2023-02-12T09:47:21;102150.91;;;-3.20;100.00
59650;BME280;46162;57.568;25.814;2023-02-12T09:50:21;102145.47;;;-3.11;100.00
59650;BME280;46162;57.568;25.814;2023-02-12T09:52:54;102133.91;;;-3.06;100.00
59650;BME280;46162;57.568;25.814;2023-02-12T09:55:27;102129.38;;;-2.99;100.00
59650;BME280;46162;57.568;25.814;2023-02-12T09:57:57;102124.09;;;-2.99;100.00
59650;BME280;46162;57.568;25.814;2023-02-12T10:00:27;102123.97;;;-2.93;100.00
59650;BME280;46162;57.568;25.814;2023-02-12T10:03:00;102126.50;;;-2.87;100.00
59650;BME280;46162;57.568;25.814;2023-02-12T10:05:34;102122.84;;;-2.81;100.00
59650;BME280;46162;57.568;25.814;2023-02-12T10:08:17;102131.56;;;-2.76;100.00
59650;BME280;46162;57.568;25.814;2023-02-12T10:10:54;102119.09;;;-2.71;100.00
59650;BME280;46162;57.568;25.814;2023-02-12T10:13:37;102118.16;;;-2.68;100.00
59650;BME280;46162;57.568;25.814;2023-02-12T10:16:15;102117.16;;;-2.61;100.00
59650;BME280;46162;57.568;25.814;2023-02-12T10:19:02;102097.78;;;-2.62;100.00
59650;BME280;46162;57.568;25.814;2023-02-12T10:21:43;102099.47;;;-2.59;100.00
59650;BME280;46162;57.568;25.814;2023-02-12T10:27:35;102108.84;;;-2.44;100.00
59650;BME280;46162;57.568;25.814;2023-02-12T10:30:13;102103.50;;;-2.43;100.00
59650;BME280;46162;57.568;25.814;2023-02-12T10:32:45;102096.41;;;-2.41;100.00
59650;BME280;46162;57.568;25.814;2023-02-12T10:35:17;102097.25;;;-2.39;100.00
59650;BME280;46162;57.568;25.814;2023-02-12T10:37:49;102096.34;;;-2.38;100.00
59650;BME280;46162;57.568;25.814;2023-02-12T10:40:22;102076.06;;;-2.37;100.00
59650;BME280;46162;57.568;25.814;2023-02-12T10:42:54;102073.44;;;-2.39;100.00
59650;BME280;46162;57.568;25.814;2023-02-12T10:45:27;102072.53;;;-2.38;100.00
59650;BME280;46162;57.568;25.814;2023-02-12T10:48:07;102077.78;;;-2.34;100.00
59650;BME280;46162;57.568;25.814;2023-02-12T10:50:44;102079.38;;;-2.27;100.00
59650;BME280;46162;57.568;25.814;2023-02-12T10:53:20;102083.59;;;-2.20;100.00
59650;BME280;46162;57.568;25.814;2023-02-12T10:55:49;102065.06;;;-2.20;100.00
59650;BME280;46162;57.568;25.814;2023-02-12T10:58:33;102059.75;;;-2.19;100.00
59650;BME280;46162;57.568;25.814;2023-02-12T11:01:02;102052.69;;;-2.18;100.00
59650;BME280;46162;57.568;25.814;2023-02-12T11:03:32;102039.41;;;-2.15;100.00
59650;BME280;46162;57.568;25.814;2023-02-12T11:06:12;102030.53;;;-2.14;100.00
59650;BME280;46162;57.568;25.814;2023-02-12T11:08:41;102032.28;;;-2.13;100.00
59650;BME280;46162;57.568;25.814;2023-02-12T11:11:11;102029.56;;;-2.10;100.00
59650;BME280;46162;57.568;25.814;2023-02-12T11:13:43;102021.63;;;-2.10;100.00
59650;BME280;46162;57.568;25.814;2023-02-12T11:16:28;102017.13;;;-2.06;100.00
59650;BME280;46162;57.568;25.814;2023-02-12T11:18:58;102001.22;;;-2.05;100.00
59650;BME280;46162;57.568;25.814;2023-02-12T11:21:27;102007.25;;;-2.00;100.00
59650;BME280;46162;57.568;25.814;2023-02-12T11:23:55;102003.50;;;-1.91;100.00
59650;BME280;46162;57.568;25.814;2023-02-12T11:26:26;101995.44;;;-1.86;100.00
59650;BME280;46162;57.568;25.814;2023-02-12T11:28:57;101988.28;;;-1.83;100.00
59650;BME280;46162;57.568;25.814;2023-02-12T11:31:29;101989.91;;;-1.77;100.00
59650;BME280;46162;57.568;25.814;2023-02-12T11:34:14;101993.25;;;-1.70;100.00
59650;BME280;46162;57.568;25.814;2023-02-12T11:36:46;101988.75;;;-1.67;100.00
59650;BME280;46162;57.568;25.814;2023-02-12T11:39:19;101993.91;;;-1.62;100.00
59650;BME280;46162;57.568;25.814;2023-02-12T11:41:50;101982.47;;;-1.63;100.00
59650;BME280;46162;57.568;25.814;2023-02-12T11:44:22;101970.13;;;-1.64;100.00
59650;BME280;46162;57.568;25.814;2023-02-12T11:46:56;101977.91;;;-1.58;100.00
59650;BME280;46162;57.568;25.814;2023-02-12T11:49:29;101969.97;;;-1.58;100.00
59650;BME280;46162;57.568;25.814;2023-02-12T11:52:00;101954.97;;;-1.59;100.00
59650;BME280;46162;57.568;25.814;2023-02-12T11:54:33;101942.63;;;-1.58;100.00
59650;BME280;46162;57.568;25.814;2023-02-12T11:57:04;101965.50;;;-1.56;100.00
59650;BME280;46162;57.568;25.814;2023-02-12T11:59:34;101951.41;;;-1.58;100.00
59650;BME280;46162;57.568;25.814;2023-02-12T12:02:16;101961.88;;;-1.53;100.00
59650;BME280;46162;57.568;25.814;2023-02-12T12:04:49;101970.69;;;-1.53;100.00
59650;BME280;46162;57.568;25.814;2023-02-12T12:07:22;101970.69;;;-1.53;100.00
59650;BME280;46162;57.568;25.814;2023-02-12T12:09:57;101956.53;;;-1.52;100.00
59650;BME280;46162;57.568;25.814;2023-02-12T12:12:36;101958.28;;;-1.50;100.00
59650;BME280;46162;57.568;25.814;2023-02-12T12:15:14;101954.72;;;-1.49;100.00
59650;BME280;46162;57.568;25.814;2023-02-12T12:18:10;101958.19;;;-1.47;100.00
59650;BME280;46162;57.568;25.814;2023-02-12T12:21:07;101952.94;;;-1.49;100.00
59650;BME280;46162;57.568;25.814;2023-02-12T12:23:40;101937.97;;;-1.50;100.00
59650;BME280;46162;57.568;25.814;2023-02-12T12:26:15;101946.63;;;-1.45;100.00
59650;BME280;46162;57.568;25.814;2023-02-12T12:28:51;101943.97;;;-1.43;100.00
59650;BME280;46162;57.568;25.814;2023-02-12T12:31:25;101942.19;;;-1.44;100.00
59650;BME280;46162;57.568;25.814;2023-02-12T12:34:03;101945.78;;;-1.45;100.00
59650;BME280;46162;57.568;25.814;2023-02-12T12:37:06;101943.13;;;-1.45;100.00
59650;BME280;46162;57.568;25.814;2023-02-12T12:39:44;101938.59;;;-1.42;100.00
59650;BME280;46162;57.568;25.814;2023-02-12T12:45:30;101935.91;;;-1.40;100.00
59650;BME280;46162;57.568;25.814;2023-02-12T12:48:12;101940.28;;;-1.39;100.00
59650;BME280;46162;57.568;25.814;2023-02-12T12:50:58;101941.22;;;-1.40;100.00
59650;BME280;46162;57.568;25.814;2023-02-12T12:53:41;101940.28;;;-1.39;100.00
59650;BME280;46162;57.568;25.814;2023-02-12T12:56:23;101934.13;;;-1.40;100.00
59650;BME280;46162;57.568;25.814;2023-02-12T13:02:05;101925.31;;;-1.40;100.00
59650;BME280;46162;57.568;25.814;2023-02-12T13:04:54;101930.56;;;-1.39;100.00
59650;BME280;46162;57.568;25.814;2023-02-12T13:07:45;101929.69;;;-1.39;100.00
59650;BME280;46162;57.568;25.814;2023-02-12T13:10:30;101920.91;;;-1.41;100.00
59650;BME280;46162;57.568;25.814;2023-02-12T13:13:08;101911.16;;;-1.39;100.00
59650;BME280;46162;57.568;25.814;2023-02-12T13:15:47;101918.25;;;-1.41;100.00
59650;BME280;46162;57.568;25.814;2023-02-12T13:18:28;101915.59;;;-1.40;100.00